createdAt,value
2022-12-06T00:02:14.430Z,101404.75
2022-12-06T00:04:43.298Z,101398.84
2022-12-06T00:07:11.415Z,101404.00
2022-12-06T00:09:40.231Z,101398.78
2022-12-06T00:12:06.721Z,101402.25
2022-12-06T00:14:33.078Z,101404.00
2022-12-06T00:16:59.448Z,101404.00
2022-12-06T00:19:26.071Z,101398.78
2022-12-06T00:21:52.471Z,101398.63
2022-12-06T00:24:21.521Z,101400.25
2022-12-06T00:26:49.567Z,101399.41
2022-12-06T00:29:23.690Z,101401.72
2022-12-06T00:31:50.811Z,101391.59
2022-12-06T00:34:18.699Z,101397.66
2022-12-06T00:36:45.079Z,101398.72
2022-12-06T00:39:13.937Z,101395.34
2022-12-06T00:41:41.138Z,101397.97
2022-12-06T00:44:08.232Z,101393.81
2022-12-06T00:46:35.699Z,101394.06
2022-12-06T00:49:04.188Z,101388.09
2022-12-06T00:51:35.482Z,101392.16
2022-12-06T00:54:02.703Z,101393.84
2022-12-06T00:56:32.150Z,101380.78
2022-12-06T00:58:58.790Z,101385.13
2022-12-06T01:01:28.376Z,101382.66
2022-12-06T01:03:59.728Z,101387.78
2022-12-06T01:06:31.372Z,101383.50
2022-12-06T01:09:01.891Z,101378.56
2022-12-06T01:11:29.124Z,101382.31
2022-12-06T01:13:55.992Z,101378.84
2022-12-06T01:16:25.311Z,101379.66
2022-12-06T01:18:56.956Z,101378.06
2022-12-06T01:21:26.026Z,101378.03
2022-12-06T01:23:54.284Z,101376.38
2022-12-06T01:26:26.283Z,101379.59
2022-12-06T01:28:53.287Z,101377.09
2022-12-06T01:31:19.983Z,101384.00
2022-12-06T01:33:46.506Z,101378.78
2022-12-06T01:36:21.213Z,101376.28
2022-12-06T01:38:54.847Z,101364.34
2022-12-06T01:41:23.950Z,101365.34
2022-12-06T01:43:50.561Z,101370.50
2022-12-06T01:46:26.091Z,101368.69
2022-12-06T01:49:00.602Z,101365.25
2022-12-06T01:51:27.514Z,101368.78
2022-12-06T01:53:56.047Z,101365.34
2022-12-06T01:56:22.541Z,101368.78
2022-12-06T01:58:52.549Z,101373.06
2022-12-06T02:01:18.945Z,101365.50
2022-12-06T02:03:47.443Z,101370.66
2022-12-06T02:06:16.359Z,101372.56
2022-12-06T02:08:44.698Z,101368.41
2022-12-06T02:11:11.442Z,101368.63
2022-12-06T02:13:39.706Z,101364.31
2022-12-06T02:16:30.523Z,101354.81
2022-12-06T02:19:18.040Z,101348.94
2022-12-06T02:21:58.050Z,101353.16
2022-12-06T02:25:21.209Z,101342.13
2022-12-06T02:28:06.138Z,101339.84
2022-12-06T02:30:38.657Z,101334.19
2022-12-06T02:33:21.283Z,101341.25
2022-12-06T02:36:00.550Z,101338.56
2022-12-06T02:38:45.527Z,101331.63
2022-12-06T02:41:20.390Z,101332.41
2022-12-06T02:43:54.465Z,101329.88
2022-12-06T02:46:23.263Z,101326.53
2022-12-06T02:48:53.318Z,101330.78
2022-12-06T02:51:20.941Z,101329.06
2022-12-06T02:53:51.702Z,101329.19
2022-12-06T02:56:19.099Z,101328.47
2022-12-06T02:58:46.531Z,101332.69
2022-12-06T03:01:18.634Z,101327.50
2022-12-06T03:03:57.187Z,101328.53
2022-12-06T03:06:36.433Z,101330.19
2022-12-06T03:09:05.747Z,101324.31
2022-12-06T03:11:47.318Z,101326.88
2022-12-06T03:14:24.271Z,101325.34
2022-12-06T03:17:27.698Z,101327.13
2022-12-06T03:19:59.831Z,101317.78
2022-12-06T03:22:40.341Z,101310.88
2022-12-06T03:25:08.155Z,101314.19
2022-12-06T03:27:36.270Z,101316.84
2022-12-06T03:30:09.668Z,101317.53
2022-12-06T03:32:38.114Z,101317.47
2022-12-06T03:35:09.981Z,101315.78
2022-12-06T03:37:40.681Z,101309.81
2022-12-06T03:40:16.712Z,101319.41
2022-12-06T03:42:43.519Z,101312.34
2022-12-06T03:45:12.180Z,101313.19
2022-12-06T03:47:58.807Z,101315.03
2022-12-06T03:50:32.415Z,101317.69
2022-12-06T03:53:01.327Z,101313.41
2022-12-06T03:55:27.775Z,101312.78
2022-12-06T03:57:54.116Z,101314.66
2022-12-06T04:00:20.526Z,101306.03
2022-12-06T04:02:46.916Z,101306.88
2022-12-06T04:05:13.777Z,101294.09
2022-12-06T04:07:40.222Z,101307.00
2022-12-06T04:10:07.158Z,101306.03
2022-12-06T04:12:53.706Z,101298.97
2022-12-06T04:15:21.815Z,101289.69
2022-12-06T04:18:07.726Z,101294.84
2022-12-06T04:20:52.992Z,101295.72
2022-12-06T04:23:20.231Z,101296.63
2022-12-06T04:25:46.987Z,101288.97
2022-12-06T04:28:32.129Z,101288.88
2022-12-06T04:31:21.789Z,101292.91
2022-12-06T04:34:11.263Z,101287.88
2022-12-06T04:36:58.163Z,101286.81
2022-12-06T04:39:24.855Z,101280.75
2022-12-06T04:42:13.330Z,101281.78
2022-12-06T04:44:39.862Z,101277.44
2022-12-06T04:47:06.986Z,101276.69
2022-12-06T04:49:34.634Z,101276.50
2022-12-06T04:52:01.652Z,101270.50
2022-12-06T04:54:29.962Z,101271.34
2022-12-06T04:56:57.543Z,101277.38
2022-12-06T04:59:25.387Z,101277.44
2022-12-06T05:01:52.647Z,101279.09
2022-12-06T05:04:19.386Z,101269.53
2022-12-06T05:06:45.859Z,101268.91
2022-12-06T05:09:12.348Z,101262.03
2022-12-06T05:11:38.830Z,101266.03
2022-12-06T05:14:05.177Z,101267.69
2022-12-06T05:16:31.862Z,101272.09
2022-12-06T05:18:58.348Z,101270.41
2022-12-06T05:21:25.361Z,101273.94
2022-12-06T05:23:55.485Z,101273.88
2022-12-06T05:26:25.804Z,101279.78
2022-12-06T05:28:53.737Z,101278.13
2022-12-06T05:31:20.882Z,101278.22
2022-12-06T05:33:48.148Z,101279.81
2022-12-06T05:36:20.395Z,101279.03
2022-12-06T05:38:51.279Z,101282.47
2022-12-06T05:41:19.858Z,101271.38
2022-12-06T05:43:46.201Z,101281.72
2022-12-06T05:46:12.746Z,101278.28
2022-12-06T05:48:39.499Z,101281.47
2022-12-06T05:51:06.035Z,101286.78
2022-12-06T05:53:32.473Z,101284.97
2022-12-06T05:56:05.208Z,101274.63
2022-12-06T05:58:31.675Z,101279.75
2022-12-06T06:00:57.965Z,101274.59
2022-12-06T06:03:24.501Z,101276.50
2022-12-06T06:05:53.828Z,101276.63
2022-12-06T06:08:20.202Z,101273.03
2022-12-06T06:10:46.696Z,101283.50
2022-12-06T06:13:13.039Z,101273.13
2022-12-06T06:15:39.387Z,101274.59
2022-12-06T06:18:08.461Z,101274.59
2022-12-06T06:20:34.863Z,101275.59
2022-12-06T06:23:01.194Z,101270.28
2022-12-06T06:25:27.524Z,101274.66
2022-12-06T06:27:54.811Z,101278.97
2022-12-06T06:30:21.555Z,101273.88
2022-12-06T06:32:48.088Z,101282.59
2022-12-06T06:35:14.543Z,101280.63
2022-12-06T06:37:40.823Z,101286.03
2022-12-06T06:40:07.790Z,101290.94
2022-12-06T06:42:34.074Z,101284.13
2022-12-06T06:45:00.378Z,101291.84
2022-12-06T06:47:26.706Z,101284.84
2022-12-06T06:49:53.008Z,101288.38
2022-12-06T06:52:20.022Z,101293.59
2022-12-06T06:54:46.343Z,101295.34
2022-12-06T06:57:17.553Z,101290.94
2022-12-06T06:59:45.328Z,101297.19
2022-12-06T07:02:16.745Z,101297.19
2022-12-06T07:04:44.560Z,101300.56
2022-12-06T07:07:19.284Z,101289.22
2022-12-06T07:09:49.818Z,101300.44
2022-12-06T07:12:16.289Z,101298.72
2022-12-06T07:14:42.575Z,101300.50
2022-12-06T07:17:09.015Z,101292.47
2022-12-06T07:19:35.518Z,101296.03
2022-12-06T07:22:02.112Z,101298.41
2022-12-06T07:24:28.411Z,101295.84
2022-12-06T07:26:57.218Z,101295.84
2022-12-06T07:29:23.674Z,101294.97
2022-12-06T07:31:50.287Z,101297.50
2022-12-06T07:34:18.923Z,101294.13
2022-12-06T07:36:45.214Z,101293.44
2022-12-06T07:39:14.706Z,101300.19
2022-12-06T07:42:00.125Z,101302.63
2022-12-06T07:44:44.880Z,101293.88
2022-12-06T07:47:12.379Z,101303.28
2022-12-06T07:49:38.701Z,101296.50
2022-12-06T07:52:05.229Z,101300.06
2022-12-06T07:54:31.938Z,101293.13
2022-12-06T07:56:58.425Z,101288.72
2022-12-06T07:59:25.206Z,101298.22
2022-12-06T08:01:52.772Z,101290.50
2022-12-06T08:04:19.732Z,101295.63
2022-12-06T08:06:46.174Z,101297.53
2022-12-06T08:09:12.846Z,101298.50
2022-12-06T08:11:39.280Z,101302.75
2022-12-06T08:14:06.700Z,101295.69
2022-12-06T08:16:33.109Z,101299.22
2022-12-06T08:18:59.536Z,101303.44
2022-12-06T08:21:26.711Z,101306.06
2022-12-06T08:23:54.303Z,101311.34
2022-12-06T08:26:21.071Z,101317.25
2022-12-06T08:28:49.718Z,101314.69
2022-12-06T08:31:23.046Z,101313.69
2022-12-06T08:33:49.676Z,101314.53
2022-12-06T08:36:19.416Z,101316.25
2022-12-06T08:38:47.092Z,101314.59
2022-12-06T08:41:32.258Z,101311.97
2022-12-06T08:44:02.886Z,101311.91
2022-12-06T08:46:30.376Z,101317.97
2022-12-06T08:48:59.560Z,101309.50
2022-12-06T08:51:26.160Z,101318.22
2022-12-06T08:53:53.538Z,101317.00
2022-12-06T08:56:20.330Z,101322.34
2022-12-06T08:58:46.790Z,101319.94
2022-12-06T09:01:16.343Z,101322.38
2022-12-06T09:03:43.062Z,101327.47
2022-12-06T09:06:10.628Z,101318.97
2022-12-06T09:08:37.974Z,101320.66
2022-12-06T09:11:07.881Z,101332.50
2022-12-06T09:13:36.857Z,101342.19
2022-12-06T09:16:08.585Z,101335.41
2022-12-06T09:18:35.571Z,101338.78
2022-12-06T09:21:10.734Z,101340.72
2022-12-06T09:23:37.843Z,101335.28
2022-12-06T09:26:06.597Z,101333.63
2022-12-06T09:28:39.491Z,101343.84
2022-12-06T09:31:07.884Z,101341.34
2022-12-06T09:33:35.745Z,101336.25
2022-12-06T09:36:10.375Z,101342.41
2022-12-06T09:38:39.822Z,101334.75
2022-12-06T09:41:33.476Z,101332.03
2022-12-06T09:44:24.288Z,101327.63
2022-12-06T09:47:11.878Z,101333.66
2022-12-06T09:50:08.632Z,101342.06
2022-12-06T09:53:11.579Z,101325.91
2022-12-06T09:55:47.171Z,101327.63
2022-12-06T09:58:21.916Z,101322.44
2022-12-06T10:01:00.243Z,101317.25
2022-12-06T10:03:49.420Z,101324.84
2022-12-06T10:06:20.231Z,101318.94
2022-12-06T10:08:49.763Z,101318.69
2022-12-06T10:11:35.564Z,101311.16
2022-12-06T10:14:40.467Z,101316.31
2022-12-06T10:17:51.952Z,101312.75
2022-12-06T10:20:41.277Z,101309.06
2022-12-06T10:23:29.243Z,101320.28
2022-12-06T10:26:01.437Z,101315.13
2022-12-06T10:28:56.769Z,101317.91
2022-12-06T10:31:54.883Z,101316.97
2022-12-06T10:34:28.466Z,101318.03
2022-12-06T10:37:24.033Z,101317.19
2022-12-06T10:39:56.754Z,101323.91
2022-12-06T10:42:47.787Z,101316.25
2022-12-06T10:46:08.995Z,101318.81
2022-12-06T10:48:43.357Z,101308.44
2022-12-06T10:51:14.897Z,101311.69
2022-12-06T10:53:47.621Z,101305.75
2022-12-06T10:56:30.160Z,101317.78
2022-12-06T10:59:03.218Z,101305.81
2022-12-06T11:01:36.812Z,101310.75
2022-12-06T11:04:16.853Z,101303.84
2022-12-06T11:06:55.117Z,101305.50
2022-12-06T11:09:40.190Z,101310.78
2022-12-06T11:12:31.514Z,101309.00
2022-12-06T11:15:18.866Z,101309.00
2022-12-06T11:17:50.513Z,101316.03
2022-12-06T11:20:27.830Z,101304.03
2022-12-06T11:23:20.473Z,101300.91
2022-12-06T11:26:23.617Z,101301.66
2022-12-06T11:29:04.046Z,101295.75
2022-12-06T11:31:38.765Z,101294.66
2022-12-06T11:34:14.418Z,101288.66
2022-12-06T11:36:41.443Z,101293.94
2022-12-06T11:39:07.822Z,101293.88
2022-12-06T11:41:37.422Z,101280.00
2022-12-06T11:44:04.100Z,101284.38
2022-12-06T11:46:30.723Z,101273.09
2022-12-06T11:49:16.019Z,101272.16
2022-12-06T11:51:42.503Z,101267.19
2022-12-06T11:54:34.926Z,101258.72
2022-12-06T11:57:22.147Z,101258.84
2022-12-06T12:00:12.773Z,101263.81
2022-12-06T12:02:40.423Z,101257.88
2022-12-06T12:05:17.841Z,101252.78
2022-12-06T12:07:48.281Z,101265.81
2022-12-06T12:10:33.979Z,101253.38
2022-12-06T12:13:31.109Z,101259.25
2022-12-06T12:16:05.455Z,101253.53
2022-12-06T12:18:36.498Z,101251.75
2022-12-06T12:21:06.118Z,101250.84
2022-12-06T12:23:38.402Z,101251.53
2022-12-06T12:26:11.519Z,101250.69
2022-12-06T12:28:38.778Z,101247.50
2022-12-06T12:31:23.983Z,101243.34
2022-12-06T12:34:15.273Z,101238.91
2022-12-06T12:36:47.873Z,101234.44
2022-12-06T12:39:28.588Z,101233.56
2022-12-06T12:42:02.635Z,101232.69
2022-12-06T12:44:38.138Z,101230.88
2022-12-06T12:47:18.488Z,101236.94
2022-12-06T12:50:00.401Z,101231.53
2022-12-06T12:52:38.811Z,101232.34
2022-12-06T12:55:21.064Z,101222.72
2022-12-06T12:57:52.732Z,101231.44
2022-12-06T13:00:20.992Z,101224.50
2022-12-06T13:02:58.371Z,101220.22
2022-12-06T13:05:34.595Z,101216.91
2022-12-06T13:08:11.276Z,101218.81
2022-12-06T13:10:43.083Z,101212.81
2022-12-06T13:13:25.241Z,101220.53
2022-12-06T13:15:55.243Z,101221.41
2022-12-06T13:18:24.134Z,101223.88
2022-12-06T13:20:53.009Z,101215.84
2022-12-06T13:23:27.273Z,101221.03
2022-12-06T13:26:22.811Z,101225.16
2022-12-06T13:28:54.742Z,101222.59
2022-12-06T13:31:27.680Z,101221.59
2022-12-06T13:33:59.589Z,101222.53
2022-12-06T13:36:31.414Z,101217.25
2022-12-06T13:38:58.193Z,101220.13
2022-12-06T13:41:58.982Z,101221.06
2022-12-06T13:44:50.687Z,101220.09
2022-12-06T13:47:26.365Z,101223.97
2022-12-06T13:50:14.881Z,101223.91
2022-12-06T13:52:47.258Z,101229.13
2022-12-06T13:55:25.756Z,101223.84
2022-12-06T13:57:54.955Z,101226.41
2022-12-06T14:00:30.588Z,101226.53
2022-12-06T14:03:03.003Z,101224.44
2022-12-06T14:06:14.330Z,101227.41
2022-12-06T14:08:47.234Z,101221.19
2022-12-06T14:11:13.980Z,101221.13
2022-12-06T14:13:45.562Z,101224.34
2022-12-06T14:16:22.796Z,101213.84
2022-12-06T14:18:50.315Z,101208.63
2022-12-06T14:21:49.905Z,101207.84
2022-12-06T14:24:54.767Z,101201.78
2022-12-06T14:27:23.696Z,101208.84
2022-12-06T14:30:23.512Z,101199.53
2022-12-06T14:32:57.063Z,101213.00
2022-12-06T14:35:35.790Z,101215.63
2022-12-06T14:38:21.841Z,101206.34
2022-12-06T14:41:07.377Z,101206.41
2022-12-06T14:43:34.742Z,101192.47
2022-12-06T14:46:04.851Z,101199.53
2022-12-06T14:48:52.888Z,101204.69
2022-12-06T14:51:25.777Z,101195.06
2022-12-06T14:53:52.723Z,101199.53
2022-12-06T14:56:33.466Z,101188.41
2022-12-06T14:59:08.884Z,101196.00
2022-12-06T15:01:36.381Z,101189.91
2022-12-06T15:04:07.974Z,101179.75
2022-12-06T15:06:36.727Z,101186.50
2022-12-06T15:09:13.591Z,101184.75
2022-12-06T15:12:02.144Z,101183.06
2022-12-06T15:14:45.705Z,101187.56
2022-12-06T15:17:12.066Z,101193.34
2022-12-06T15:19:52.628Z,101194.00
2022-12-06T15:22:25.782Z,101199.41
2022-12-06T15:24:57.626Z,101205.41
2022-12-06T15:27:27.191Z,101200.31
2022-12-06T15:29:53.950Z,101200.53
2022-12-06T15:32:23.369Z,101193.50
2022-12-06T15:34:49.873Z,101190.34
2022-12-06T15:40:04.586Z,101190.69
2022-12-06T15:42:31.332Z,101188.06
2022-12-06T15:44:57.687Z,101196.00
2022-12-06T15:47:24.072Z,101184.16
2022-12-06T15:49:52.333Z,101190.19
2022-12-06T15:52:24.936Z,101185.75
2022-12-06T15:54:52.575Z,101180.69
2022-12-06T15:57:18.895Z,101180.34
2022-12-06T15:59:45.402Z,101171.69
2022-12-06T16:02:19.646Z,101175.13
2022-12-06T16:04:48.459Z,101176.84
2022-12-06T16:07:18.509Z,101176.97
2022-12-06T16:09:45.567Z,101172.81
2022-12-06T16:12:12.023Z,101175.34
2022-12-06T16:14:38.450Z,101175.34
2022-12-06T16:17:04.749Z,101173.56
2022-12-06T16:19:53.110Z,101173.41
2022-12-06T16:22:39.453Z,101178.66
2022-12-06T16:25:08.681Z,101180.44
2022-12-06T16:27:35.004Z,101176.72
2022-12-06T16:30:01.743Z,101171.22
2022-12-06T16:32:28.144Z,101172.00
2022-12-06T16:34:54.467Z,101172.94
2022-12-06T16:37:20.778Z,101173.63
2022-12-06T16:39:47.107Z,101166.34
2022-12-06T16:42:13.501Z,101164.50
2022-12-06T16:44:50.716Z,101163.13
2022-12-06T16:47:17.145Z,101163.84
2022-12-06T16:49:46.332Z,101169.97
2022-12-06T16:52:14.223Z,101169.78
2022-12-06T16:54:44.659Z,101171.50
2022-12-06T16:57:11.881Z,101170.63
2022-12-06T16:59:38.310Z,101168.69
2022-12-06T17:02:26.458Z,101178.78
2022-12-06T17:04:54.323Z,101183.00
2022-12-06T17:07:23.100Z,101180.44
2022-12-06T17:09:49.418Z,101176.22
2022-12-06T17:12:15.971Z,101178.81
2022-12-06T17:14:42.837Z,101180.44
2022-12-06T17:17:18.468Z,101178.19
2022-12-06T17:19:44.842Z,101182.38
2022-12-06T17:22:13.126Z,101180.75
2022-12-06T17:24:39.586Z,101182.38
2022-12-06T17:27:06.959Z,101176.00
2022-12-06T17:29:33.284Z,101173.56
2022-12-06T17:31:59.656Z,101172.53
2022-12-06T17:34:26.110Z,101171.56
2022-12-06T17:36:52.691Z,101175.91
2022-12-06T17:39:20.860Z,101178.47
2022-12-06T17:42:06.189Z,101176.69
2022-12-06T17:44:34.002Z,101179.94
2022-12-06T17:47:00.482Z,101179.06
2022-12-06T17:49:27.425Z,101180.72
2022-12-06T17:51:54.431Z,101171.91
2022-12-06T17:54:21.430Z,101176.16
2022-12-06T17:56:53.125Z,101170.28
2022-12-06T17:59:22.371Z,101167.53
2022-12-06T18:04:36.630Z,101171.06
2022-12-06T18:07:02.999Z,101171.19
2022-12-06T18:09:29.433Z,101172.94
2022-12-06T18:11:56.144Z,101172.91
2022-12-06T18:14:22.582Z,101163.63
2022-12-06T18:16:49.134Z,101155.84
2022-12-06T18:19:18.330Z,101167.63
2022-12-06T18:21:46.143Z,101165.03
2022-12-06T18:24:24.621Z,101160.00
2022-12-06T18:26:54.397Z,101152.38
2022-12-06T18:29:23.404Z,101146.34
2022-12-06T18:31:50.842Z,101148.03
2022-12-06T18:34:17.324Z,101144.53
2022-12-06T18:36:48.209Z,101148.72
2022-12-06T18:39:16.924Z,101144.59
2022-12-06T18:41:44.601Z,101145.47
2022-12-06T18:44:12.134Z,101148.81
2022-12-06T18:46:39.562Z,101144.53
2022-12-06T18:49:06.756Z,101143.66
2022-12-06T18:51:35.001Z,101141.03
2022-12-06T18:54:04.570Z,101153.06
2022-12-06T18:56:32.229Z,101132.53
2022-12-06T18:59:00.265Z,101130.84
2022-12-06T19:01:29.517Z,101130.00
2022-12-06T19:04:00.113Z,101127.25
2022-12-06T19:06:29.296Z,101130.50
2022-12-06T19:08:57.886Z,101130.59
2022-12-06T19:11:24.465Z,101134.84
2022-12-06T19:13:53.595Z,101121.94
2022-12-06T19:16:22.956Z,101120.25
2022-12-06T19:18:50.171Z,101133.09
2022-12-06T19:21:17.050Z,101127.16
2022-12-06T19:23:43.533Z,101117.75
2022-12-06T19:26:09.919Z,101124.50
2022-12-06T19:28:39.453Z,101126.22
2022-12-06T19:31:11.159Z,101108.22
2022-12-06T19:33:40.386Z,101113.50
2022-12-06T19:36:13.798Z,101117.69
2022-12-06T19:38:40.623Z,101112.38
2022-12-06T19:41:10.667Z,101105.53
2022-12-06T19:43:55.624Z,101108.97
2022-12-06T19:46:26.076Z,101100.25
2022-12-06T19:48:55.850Z,101102.13
2022-12-06T19:51:22.509Z,101098.09
2022-12-06T19:53:48.917Z,101100.88
2022-12-06T19:56:16.963Z,101089.00
2022-12-06T19:58:44.516Z,101088.13
2022-12-06T20:01:15.943Z,101086.47
2022-12-06T20:03:43.208Z,101083.94
2022-12-06T20:06:18.004Z,101083.19
2022-12-06T20:08:46.183Z,101078.22
2022-12-06T20:11:37.627Z,101075.56
2022-12-06T20:14:07.135Z,101071.31
2022-12-06T20:16:34.925Z,101071.22
2022-12-06T20:19:01.456Z,101067.16
2022-12-06T20:21:27.795Z,101073.25
2022-12-06T20:23:54.384Z,101068.19
2022-12-06T20:26:20.694Z,101055.34
2022-12-06T20:28:47.761Z,101040.06
2022-12-06T20:31:19.457Z,101032.38
2022-12-06T20:33:46.535Z,101041.78
2022-12-06T20:36:18.201Z,101022.88
2022-12-06T20:38:45.152Z,101017.66
2022-12-06T20:41:16.183Z,101005.63
2022-12-06T20:43:43.134Z,101004.63
2022-12-06T20:46:15.240Z,101005.63
2022-12-06T20:48:42.935Z,101005.41
2022-12-06T20:51:18.567Z,101012.81
2022-12-06T20:53:48.552Z,101000.91
2022-12-06T20:56:17.623Z,101000.97
2022-12-06T20:58:45.187Z,100996.91
2022-12-06T21:01:19.376Z,100992.81
2022-12-06T21:03:49.771Z,100995.41
2022-12-06T21:06:17.419Z,100988.53
2022-12-06T21:08:44.084Z,100980.69
2022-12-06T21:11:26.470Z,100985.09
2022-12-06T21:13:55.133Z,100980.91
2022-12-06T21:16:32.413Z,100978.56
2022-12-06T21:19:07.924Z,100971.88
2022-12-06T21:21:36.993Z,100965.00
2022-12-06T21:24:07.333Z,100958.06
2022-12-06T21:26:34.832Z,100958.94
2022-12-06T21:29:01.456Z,100952.09
2022-12-06T21:31:29.967Z,100945.34
2022-12-06T21:33:58.440Z,100946.03
2022-12-06T21:36:25.386Z,100952.06
2022-12-06T21:38:52.436Z,100953.88
2022-12-06T21:41:19.688Z,100943.59
2022-12-06T21:43:46.432Z,100953.06
2022-12-06T21:46:24.795Z,100951.16
2022-12-06T21:48:55.658Z,100949.34
2022-12-06T21:51:23.552Z,100952.00
2022-12-06T21:53:50.566Z,100945.16
2022-12-06T21:56:27.047Z,100948.66
2022-12-06T21:58:54.025Z,100950.47
2022-12-06T22:01:28.058Z,100945.38
2022-12-06T22:03:56.871Z,100939.44
2022-12-06T22:06:23.262Z,100940.34
2022-12-06T22:08:56.461Z,100936.16
2022-12-06T22:11:26.839Z,100944.00
2022-12-06T22:13:53.506Z,100930.22
2022-12-06T22:16:19.967Z,100925.16
2022-12-06T22:18:46.705Z,100927.72
2022-12-06T22:21:21.215Z,100927.72
2022-12-06T22:23:48.462Z,100926.88
2022-12-06T22:26:21.641Z,100924.28
2022-12-06T22:28:50.214Z,100927.72
2022-12-06T22:31:25.926Z,100926.88
2022-12-06T22:33:53.414Z,100924.41
2022-12-06T22:36:23.591Z,100904.66
2022-12-06T22:38:51.806Z,100911.53
2022-12-06T22:41:19.339Z,100902.19
2022-12-06T22:43:49.419Z,100898.72
2022-12-06T22:46:16.727Z,100884.31
2022-12-06T22:48:43.508Z,100892.16
2022-12-06T22:51:12.655Z,100882.78
2022-12-06T22:53:40.703Z,100892.91
2022-12-06T22:56:07.706Z,100880.88
2022-12-06T22:58:34.046Z,100866.28
2022-12-06T23:01:17.839Z,100874.09
2022-12-06T23:03:49.437Z,100873.19
2022-12-06T23:06:20.226Z,100869.88
2022-12-06T23:08:47.087Z,100869.94
2022-12-06T23:11:18.893Z,100864.84
2022-12-06T23:13:46.226Z,100866.63
2022-12-06T23:16:19.246Z,100863.31
2022-12-06T23:18:46.445Z,100859.78
2022-12-06T23:21:18.765Z,100862.41
2022-12-06T23:23:47.358Z,100853.84
2022-12-06T23:26:19.663Z,100853.03
2022-12-06T23:28:46.852Z,100865.09
2022-12-06T23:31:17.986Z,100858.25
2022-12-06T23:33:45.324Z,100859.22
2022-12-06T23:36:18.014Z,100864.28
2022-12-06T23:38:44.809Z,100849.84
2022-12-06T23:41:14.182Z,100855.09
2022-12-06T23:43:41.586Z,100850.75
2022-12-06T23:46:11.912Z,100850.00
2022-12-06T23:48:38.581Z,100844.88
2022-12-06T23:51:12.456Z,100828.66
2022-12-06T23:53:39.726Z,100822.75
2022-12-06T23:56:11.859Z,100824.44
2022-12-06T23:58:39.300Z,100819.16
